Bookmark and Share
Track history (hours):
 

Legend

More information available from US FCC via Universal Licensing System and Coast Guard Vessel Documentation Center.

Last reported at 2014-Apr-23 23:24 UTC. Time now 2014-Apr-24 00:04 UTC.
Position N 30°03' W 090°35'.

Length 213 m; draft 8 m.

Type: Towing. MMSI: 366709000.

NotesDate/timePositionNaut miles runAvg speedWind from/ knotsBaromVisibWave heightAir tempDewpointWater temp
2014-Apr-23 23:24N 30°03' W 090°35'0 0.0
2014-Apr-23 22:33N 30°03' W 090°35'0 0.0
2014-Apr-23 21:33N 30°03' W 090°35'0 0.0
2014-Apr-23 20:33N 30°03' W 090°35'0 0.0
2014-Apr-23 19:33N 30°03' W 090°35'0 0.0
2014-Apr-23 18:33N 30°03' W 090°35'0 0.0
2014-Apr-23 17:33N 30°03' W 090°35'0 0.0
2014-Apr-23 16:33N 30°03' W 090°35'0 0.0
2014-Apr-23 15:33N 30°03' W 090°35'0 0.0
2014-Apr-23 14:33N 30°03' W 090°35'0 0.0
2014-Apr-23 13:33N 30°03' W 090°35'0 0.0
2014-Apr-23 12:30N 30°03' W 090°35'0 0.0
2014-Apr-23 11:33N 30°03' W 090°35'0 0.0
2014-Apr-23 10:30N 30°03' W 090°35'0 0.0
2014-Apr-23 09:30N 30°03' W 090°35'0 0.0
2014-Apr-23 08:33N 30°03' W 090°35'0 0.0
2014-Apr-23 07:33N 30°03' W 090°35'0 0.0
2014-Apr-23 06:30N 30°03' W 090°35'0 0.0
2014-Apr-23 05:30N 30°03' W 090°35'0 0.0
2014-Apr-23 04:30N 30°03' W 090°35'0 0.0
2014-Apr-23 03:33N 30°03' W 090°35'0 0.0
2014-Apr-23 02:33N 30°03' W 090°35'0 0.0
2014-Apr-23 01:33N 30°03' W 090°35'0 0.0
2014-Apr-23 00:33N 30°03' W 090°35'0 0.0
2014-Apr-22 23:33N 30°03' W 090°35'0 0.0
2014-Apr-22 22:30N 30°03' W 090°35'0 0.0
2014-Apr-22 21:33N 30°03' W 090°35'0 0.0
2014-Apr-22 20:33N 30°03' W 090°35'0 0.0
2014-Apr-22 19:30N 30°03' W 090°35'0 0.0
2014-Apr-22 18:33N 30°03' W 090°35'0 0.0
2014-Apr-22 17:33N 30°03' W 090°35'27 6.5
2014-Apr-22 13:23N 29°55' W 090°06'5 6.0
2014-Apr-22 12:29N 29°56' W 089°60'  
2014-Apr-17 11:28N 25°04' W 080°11'25 8.6
2014-Apr-17 08:33N 25°27' W 080°01'1010.0
2014-Apr-17 07:33N 25°37' W 080°01'1111.4
2014-Apr-17 06:33N 25°49' W 080°01'1211.6
2014-Apr-17 05:33N 26°00' W 080°02'7 7.4
2014-Apr-17 04:33N 26°06' W 080°07'0 0.0
2014-Apr-17 03:22N 26°06' W 080°07'0 0.0
2014-Apr-17 02:25N 26°06' W 080°07'0 0.0
2014-Apr-17 01:25N 26°06' W 080°07'0 0.0
2014-Apr-17 00:28N 26°06' W 080°07'0 0.0
2014-Apr-16 23:28N 26°06' W 080°07'0 0.0
2014-Apr-16 22:28N 26°06' W 080°07'0 0.0
2014-Apr-16 21:31N 26°06' W 080°07'0 0.0
2014-Apr-16 20:31N 26°06' W 080°07'0 0.0
2014-Apr-16 19:31N 26°06' W 080°07'0 0.0
2014-Apr-16 18:31N 26°06' W 080°07'0 0.0
2014-Apr-16 17:28N 26°06' W 080°07'0 0.0
2014-Apr-16 16:31N 26°06' W 080°07'0 0.0
2014-Apr-16 15:31N 26°06' W 080°07'0 0.0
2014-Apr-16 14:22N 26°06' W 080°07'0 0.0
2014-Apr-16 13:22N 26°06' W 080°07'0 0.0
2014-Apr-16 12:25N 26°06' W 080°07'0 0.0
2014-Apr-16 11:25N 26°06' W 080°07'0 0.0
2014-Apr-16 10:25N 26°06' W 080°07'0 0.0
2014-Apr-16 09:28N 26°06' W 080°07'0 0.0
2014-Apr-16 08:28N 26°06' W 080°07'0 0.0
2014-Apr-16 07:28N 26°06' W 080°07'0 0.0
2014-Apr-16 06:31N 26°06' W 080°07'0 0.0
2014-Apr-16 05:31N 26°06' W 080°07'0 0.0
2014-Apr-16 04:31N 26°06' W 080°07'2 1.7
2014-Apr-16 03:33N 26°06' W 080°06'9 9.0
2014-Apr-16 02:33N 25°58' W 079°60'1615.6
2014-Apr-16 01:33N 25°43' W 079°59'  

Dump ship's entire track history

sailing weather and tide predictions

Legend — WDF9316 — position and weather